Cleveland, Ohio
Current Conditions -  °F | °C
As of 7:53 PM on Friday 24 Oct 2014 (Local Time) from KBKL Reporting Station
Overcast Overcast  
Wind Chill: 13°   Ceiling: 4700
Heat Index: 13°   Visibility: 10mi
Dew Point:   Wind: 0mph
Humidity: 67%   Direction: NA
Pressure: 30"   Gusts: NA
Location:  41.5°N, 81.69°W
Report Text: KBKL 242353Z 00000KT 10SM OVC047 13/07 A3000 RMK AO2 SLP161 T01330072 10144 20128 53001
Loading
Personal Weather Stations






























Interactive Weather Map New forecast layout! Learn more

10-Day Weather Forecast

Advertisements
Track Severe Weather on mobile